Flight Track Log - Related Links

Times and Time Zones

All times are in EDT time to prevent confusion due to time zone crossing. See the N978AC flight status page for this flight to view local times or setup timezone preferences in your user account.

Time Position Orientation Groundspeed Altitude Reporting Facility
EDT Latitude Longitude Course Direction KTS MPH feet Rate Location/Type
Sun 01:34:02 AM 29.7125 -98.0897 323° Northwest 117 135 2,600  Level Houston Center
Sun 01:34:14 AM 29.7172 -98.0939 323° Northwest 117 135 2,800 508 Climbing Houston Center
Sun 01:35:01 AM 29.7306 -98.1125 310° West 103 119 3,100 500 Climbing Houston Center
Sun 01:35:14 AM 29.7342 -98.1183 305° West 96 110 3,300 500 Climbing Houston Center
Sun 01:36:01 AM 29.7508 -98.1333 322° Northwest 102 117 3,600 393 Climbing Houston Center
Sun 01:36:15 AM 29.7531 -98.1400 291° West 95 109 3,700 400 Climbing Houston Center
Sun 01:37:01 AM 29.7636 -98.1583 304° West 95 109 4,000 393 Climbing Houston Center
Sun 01:37:16 AM 29.7658 -98.1650 291° West 89 102 4,100 393 Climbing Houston Center
Sun 01:38:02 AM 29.7786 -98.1831 309° West 94 108 4,400 400 Climbing Houston Center
Sun 01:38:16 AM 29.7808 -98.1897 291° West 94 108 4,500 500 Climbing Houston Center
Sun 01:39:02 AM 29.7925 -98.2072 308° West 94 108 4,900 492 Climbing Houston Center
Sun 01:39:17 AM 29.7956 -98.2142 297° West 91 105 5,000 400 Climbing Houston Center
Sun 01:40:02 AM 29.8053 -98.2317 303° West 93 107 5,300 492 Climbing Houston Center
Sun 01:40:18 AM 29.8086 -98.2392 297° West 93 107 5,500 400 Climbing Houston Center
Sun 01:41:02 AM 29.8231 -98.2572 313° West 101 116 5,700 300 Climbing Houston Center
Sun 01:41:18 AM 29.8258 -98.2661 290° West 100 115 5,800 400 Climbing Houston Center
Sun 01:42:02 AM 29.8319 -98.2833 292° West 92 106 6,100 295 Climbing Houston Center
Sun 01:42:19 AM 29.8364 -98.2911 303° West 88 101 6,100 100 Level Houston Center
Sun 01:43:02 AM 29.8431 -98.3106 292° West 92 106 6,200 98 Climbing Houston Center
Sun 01:43:20 AM 29.8456 -98.3214 285° West 98 113 6,200 -100 Level Houston Center
Sun 01:44:02 AM 29.8558 -98.3400 302° West 99 114 6,100 -100 Descending Houston Center
Sun 01:44:20 AM 29.8586 -98.3486 290° West 105 121 6,100  Level Houston Center
Sun 01:45:02 AM 29.8694 -98.3694 301° West 102 117 6,100  Level Houston Center
Sun 01:46:03 AM 29.8861 -98.3969 305° West 103 119 6,100  Level Houston Center
Sun 01:47:03 AM 29.9028 -98.4247 305° West 104 120 6,100  Level Houston Center
Sun 01:48:03 AM 29.9194 -98.4522 305° West 104 120 6,100 50 Level Houston Center
Sun 01:49:03 AM 29.9317 -98.4797 297° West 100 115 6,200 33 Climbing Houston Center
Sun 01:51:03 AM 29.9603 -98.5358 300° West 100 115 6,200 -33 Level Houston Center
Sun 01:52:03 AM 29.9761 -98.5650 302° West 106 122 6,100 -50 Descending Houston Center
Sun 01:53:03 AM 29.9936 -98.5922 307° West 108 124 6,100 50 Level Houston Center
Sun 01:54:03 AM 30.0081 -98.6192 302° West 102 117 6,200 50 Climbing Houston Center
Sun 01:55:04 AM 30.0167 -98.6481 289° West 98 113 6,200 -50 Level Houston Center
Sun 01:56:04 AM 30.0289 -98.6775 296° West 99 114 6,100 -50 Descending Houston Center
Sun 01:57:04 AM 30.0442 -98.7056 302° West 101 116 6,100  Level Houston Center
Sun 01:58:04 AM 30.0553 -98.7344 294° West 101 116 6,100  Level Houston Center
Sun 01:59:04 AM 30.0656 -98.7622 293° West 96 110 6,100  Level Houston Center
Sun 02:00:04 AM 30.0797 -98.7906 300° West 99 114 6,100  Level Houston Center
Sun 02:01:04 AM 30.0950 -98.8194 301° West 103 119 6,100 -50 Level Houston Center
Sun 02:02:04 AM 30.1131 -98.8458 308° West 106 122 6,000  Descending Houston Center
Sun 02:03:04 AM 30.1297 -98.8697 309° West 97 112 6,100 50 Climbing Houston Center
Sun 02:04:05 AM 30.1461 -98.8947 307° West 97 112 6,100  Level Houston Center
Sun 02:05:05 AM 30.1600 -98.9217 301° West 97 112 6,100  Level Houston Center
Sun 02:06:05 AM 30.1742 -98.9497 300° West 98 113 6,100 50 Level Houston Center
Sun 02:07:05 AM 30.1864 -98.9775 297° West 99 114 6,200  Climbing Houston Center
Sun 02:08:05 AM 30.1983 -99.0058 296° West 100 115 6,100 -100 Descending Houston Center
Sun 02:09:05 AM 30.2150 -99.0372 302° West 113 130 6,000  Descending Houston Center
Sun 02:10:05 AM 30.2306 -99.0672 301° West 104 120 6,100 50 Climbing Houston Center
Sun 02:11:05 AM 30.2469 -99.0953 304° West 107 123 6,100  Level Houston Center
Sun 02:12:05 AM 30.2556 -99.1206 292° West 99 114 6,100  Level Houston Center
Sun 02:13:06 AM 30.2661 -99.1478 294° West 96 110 6,100 -50 Level Houston Center
Sun 02:14:06 AM 30.2808 -99.1736 303° West 96 110 6,000 -50 Descending Houston Center
Sun 02:15:06 AM 30.2994 -99.1989 310° West 97 112 6,000 50 Level Houston Center
Sun 02:16:06 AM 30.3122 -99.2247 300° West 97 112 6,100 100 Climbing Houston Center
Sun 02:17:06 AM 30.3333 -99.2433 323° Northwest 97 112 6,200 50 Climbing Houston Center
Sun 02:18:06 AM 30.3519 -99.2664 313° West 97 112 6,200  Level Houston Center
Sun 02:19:06 AM 30.3644 -99.2964 296° West 98 113 6,200 50 Level Houston Center
Sun 02:20:06 AM 30.3811 -99.3206 309° West 98 113 6,300  Climbing Houston Center
Sun 02:21:06 AM 30.3978 -99.3444 309° West 98 113 6,200 -150 Descending Houston Center
Sun 02:22:06 AM 30.4144 -99.3719 305° West 98 113 6,000 -99 Descending Houston Center
Sun 02:23:07 AM 30.4317 -99.3961 310° West 98 113 6,000 50 Level Houston Center
Sun 02:24:07 AM 30.4492 -99.4178 313° West 98 113 6,100 50 Climbing Houston Center
Sun 02:25:07 AM 30.4625 -99.4422 302° West 96 110 6,100  Level Houston Center
Sun 02:26:07 AM 30.4772 -99.4664 305° West 96 110 6,100  Level Houston Center
Sun 02:27:07 AM 30.4911 -99.4917 303° West 95 109 6,100 -200 Level Houston Center
Sun 02:28:07 AM 30.5075 -99.5164 308° West 95 109 5,700 -350 Descending Houston Center
Sun 02:29:07 AM 30.5267 -99.5414 312° West 96 110 5,400 -400 Descending Houston Center
Sun 02:30:07 AM 30.5433 -99.5694 305° West 100 115 4,900 -550 Descending Houston Center
Sun 02:31:07 AM 30.5628 -99.5961 310° West 103 119 4,300 -347 Descending Houston Center
Sun 02:32:08 AM 30.5872 -99.6208 319° Northwest 109 125 4,200 -99 Descending Houston Center
Sun 02:33:08 AM 30.5983 -99.6483 295° West 110 127 4,100 -100 Descending Houston Center
Sun 02:34:08 AM 30.6172 -99.6736 311° West 112 129 4,000  Descending Houston Center
Sun 02:35:08 AM 30.6342 -99.6997 307° West 106 122 4,100  Climbing Houston Center
Sun 02:36:08 AM 30.6542 -99.7258 312° West 107 123 4,000  Descending Houston Center
Sun 02:37:08 AM 30.6775 -99.7458 324° Northwest 109 125 4,100 50 Climbing Houston Center
Sun 02:38:08 AM 30.7081 -99.7597 339° North 118 136 4,100  Level Houston Center
Sun 02:39:08 AM 30.7056 -99.7500 107° East 105 121 4,100  Level Houston Center
Sun 02:40:09 AM 30.6894 -99.7581 203° Southwest 77 89 4,100 -50 Level Houston Center
Sun 02:41:09 AM 30.6747 -99.7639 199° South 65 75 4,000 -150 Descending Houston Center
Sun 02:42:09 AM 30.6583 -99.7636 179° South 59 68 3,800 -200 Descending Houston Center
Sun 02:43:09 AM 30.6394 -99.7619 176° South 59 68 3,600 -200 Descending Houston Center

Login

Don't have an account? Register now (free) for customized features, flight alerts, and more!